Time;durP1;ratioP1;P1;durP2;ratioP2;P2;SDS_P1;SDS_P2;PMS_P1;PMS_P2;Temp;Humidity;BMP_temperature;BMP_pressure;BME280_temperature;BME280_humidity;BME280_pressure;Samples;Min_cycle;Max_cycle;Signal;HPM_P1;HPM_P2
2024/01/25 00:03:02;;;;;;;15.63;3.47;;;;;;;9.75;90.73;100951.81;12233197;19;20018;-79
2024/01/25 00:07:08;;;;;;;13.50;2.93;;;;;;;9.61;91.09;100936.41;12242597;19;20006;-82
2024/01/25 00:11:10;;;;;;;16.05;3.40;;;;;;;9.56;90.71;100934.31;12205893;19;20082;-81
2024/01/25 00:15:12;;;;;;;17.63;2.50;;;;;;;9.45;90.24;100946.81;12183735;19;20013;-80
2024/01/25 00:19:14;;;;;;;16.67;2.85;;;;;;;9.38;90.64;100936.91;12205059;19;20060;-80
2024/01/25 00:23:16;;;;;;;16.20;3.50;;;;;;;9.30;90.79;100924.22;12201971;19;20006;-80
2024/01/25 00:27:19;;;;;;;14.90;2.88;;;;;;;9.27;91.72;100910.88;12181982;19;20018;-80
2024/01/25 00:31:20;;;;;;;18.48;3.60;;;;;;;9.20;92.66;100908.16;12204880;19;20086;-82
2024/01/25 00:35:23;;;;;;;20.15;3.42;;;;;;;9.13;92.87;100926.56;12198818;19;20030;-80
2024/01/25 00:39:26;;;;;;;20.85;3.05;;;;;;;9.11;93.25;100932.28;12195774;19;20014;-78
2024/01/25 00:43:28;;;;;;;12.47;2.50;;;;;;;9.10;93.65;100929.72;12207659;19;20014;-81
2024/01/25 00:47:30;;;;;;;14.27;3.10;;;;;;;9.07;94.20;100928.28;12207344;19;20658;-80
2024/01/25 00:51:32;;;;;;;14.30;2.50;;;;;;;9.08;94.09;100935.47;12180127;19;20028;-79
2024/01/25 00:55:34;;;;;;;16.63;2.97;;;;;;;9.09;93.93;100939.88;12200380;19;20351;-80
2024/01/25 00:59:36;;;;;;;18.23;3.57;;;;;;;9.13;93.16;100934.81;12195993;19;20011;-81
2024/01/25 01:03:38;;;;;;;21.93;3.57;;;;;;;9.16;93.05;100933.53;12184986;19;20027;-80
2024/01/25 01:07:44;;;;;;;15.47;3.50;;;;;;;9.20;93.00;100934.81;12197584;19;20006;-81
2024/01/25 01:11:46;;;;;;;17.13;3.17;;;;;;;9.18;93.01;100921.28;12195984;19;20003;-80
2024/01/25 01:15:48;;;;;;;17.52;3.30;;;;;;;9.20;92.97;100923.81;12175271;19;20023;-79
2024/01/25 01:19:51;;;;;;;17.70;3.33;;;;;;;9.22;92.85;100922.56;12192588;19;20006;-80
2024/01/25 01:23:53;;;;;;;18.43;3.07;;;;;;;9.22;93.23;100925.31;12198024;19;20023;-80
2024/01/25 01:27:55;;;;;;;14.65;2.67;;;;;;;9.24;93.74;100936.06;12172839;19;20007;-81
2024/01/25 01:31:57;;;;;;;21.25;3.30;;;;;;;9.26;93.43;100947.72;12194529;19;20027;-79
2024/01/25 01:35:59;;;;;;;10.07;1.92;;;;;;;9.31;92.78;100943.28;12177568;19;20007;-79
2024/01/25 01:40:01;;;;;;;16.25;3.47;;;;;;;9.34;92.58;100942.84;12193317;19;19999;-80
2024/01/25 01:44:03;;;;;;;14.80;3.42;;;;;;;9.35;92.55;100939.00;12198986;19;21671;-81
2024/01/25 01:48:06;;;;;;;15.50;3.27;;;;;;;9.36;92.71;100951.69;12172277;19;20059;-81
2024/01/25 01:52:09;;;;;;;22.33;4.15;;;;;;;9.39;92.51;100944.94;12213313;19;20023;-81
2024/01/25 01:56:11;;;;;;;;;;;;;;;9.41;92.47;100950.22;12188675;19;20120;-80
2024/01/25 02:00:16;;;;;;;25.85;3.42;;;;;;;9.43;92.14;100951.72;12163684;19;19918;-79
2024/01/25 02:04:18;;;;;;;20.77;3.72;;;;;;;9.44;92.14;100956.16;12179530;19;20019;-80
2024/01/25 02:08:20;;;;;;;23.30;3.80;;;;;;;9.43;92.40;100946.22;12180903;19;20030;-81
2024/01/25 02:12:21;;;;;;;15.07;3.90;;;;;;;9.43;92.47;100946.22;12164965;19;20018;-80
2024/01/25 02:16:23;;;;;;;13.33;3.17;;;;;;;9.43;92.28;100945.34;12184419;19;20010;-81
2024/01/25 02:20:25;;;;;;;20.53;3.80;;;;;;;9.43;92.14;100950.84;12180787;19;20031;-80
2024/01/25 02:24:28;;;;;;;16.20;3.10;;;;;;;9.32;92.56;100944.09;12164431;19;20010;-81
2024/01/25 02:28:30;;;;;;;14.88;2.67;;;;;;;9.17;92.94;100946.25;12180809;19;20038;-79
2024/01/25 02:32:32;;;;;;;20.10;2.90;;;;;;;9.00;93.77;100946.66;12202003;19;20014;-81
2024/01/25 02:36:33;;;;;;;16.13;3.00;;;;;;;8.89;94.09;100955.53;12185950;19;20015;-81
2024/01/25 02:40:35;;;;;;;17.52;2.78;;;;;;;8.82;94.42;100951.94;12204468;19;20014;-80
2024/01/25 02:44:37;;;;;;;15.40;3.70;;;;;;;8.81;94.48;100953.84;12205863;19;20003;-80
2024/01/25 02:48:39;;;;;;;18.88;2.63;;;;;;;8.86;94.16;100937.59;12182109;19;20007;-80
2024/01/25 02:52:41;;;;;;;19.77;2.90;;;;;;;8.86;94.05;100940.34;12205556;19;20039;-79
2024/01/25 02:56:43;;;;;;;12.27;3.23;;;;;;;8.88;93.89;100946.44;12205865;19;20046;-80
2024/01/25 03:00:45;;;;;;;24.17;3.67;;;;;;;8.83;94.02;100932.53;12182233;19;20010;-80
2024/01/25 03:04:48;;;;;;;18.75;2.95;;;;;;;8.76;94.27;100952.78;12205940;19;20512;-81
2024/01/25 03:08:50;;;;;;;19.65;3.90;;;;;;;8.71;94.30;100947.91;12202595;19;20660;-80
2024/01/25 03:12:53;;;;;;;;;;;;;;;8.58;95.11;100959.75;12182882;19;21532;-81
2024/01/25 03:16:55;;;;;;;24.00;4.18;;;;;;;8.53;95.33;100959.50;12199786;19;19987;-80
2024/01/25 03:20:57;;;;;;;15.87;2.83;;;;;;;8.52;95.92;100962.47;12201902;19;20018;-80
2024/01/25 03:24:59;;;;;;;19.27;3.55;;;;;;;8.48;95.36;100959.31;12177218;19;20023;-80
2024/01/25 03:29:01;;;;;;;18.00;3.50;;;;;;;8.36;95.99;100966.44;12191606;19;20398;-79
2024/01/25 03:33:02;;;;;;;9.63;3.15;;;;;;;8.30;96.22;100978.22;12177352;19;20041;-78
2024/01/25 03:37:05;;;;;;;15.70;3.85;;;;;;;8.21;96.47;100983.09;12200162;19;20861;-81
2024/01/25 03:41:09;;;;;;;16.52;3.15;;;;;;;8.09;97.17;100982.81;12199003;19;20035;-82
2024/01/25 03:45:11;;;;;;;11.75;3.35;;;;;;;8.00;97.70;100981.28;12178503;19;20010;-81
2024/01/25 03:49:13;;;;;;;12.95;3.55;;;;;;;7.96;98.01;100980.00;12202893;19;20014;-79
2024/01/25 03:53:17;;;;;;;16.42;4.22;;;;;;;7.93;98.36;100983.16;12205215;19;20006;-79
2024/01/25 03:57:18;;;;;;;17.17;3.85;;;;;;;8.00;97.92;100989.50;12183592;19;20004;-80
2024/01/25 04:01:21;;;;;;;17.90;3.13;;;;;;;8.08;97.68;100991.25;12199932;19;20021;-79
2024/01/25 04:05:23;;;;;;;13.25;3.05;;;;;;;8.12;97.47;101007.13;12199357;19;20592;-81
2024/01/25 04:09:25;;;;;;;14.80;2.43;;;;;;;8.16;97.48;101013.03;12178268;19;20011;-80
2024/01/25 04:13:27;;;;;;;14.77;3.15;;;;;;;8.21;97.28;101010.53;12202648;19;20014;-80
2024/01/25 04:17:29;;;;;;;18.97;2.90;;;;;;;8.24;97.38;101015.63;12200508;19;20015;-80
2024/01/25 04:21:31;;;;;;;21.45;3.22;;;;;;;8.28;97.18;101022.38;12177450;19;20042;-78
2024/01/25 04:25:33;;;;;;;15.90;3.60;;;;;;;8.32;97.35;101025.56;12198757;19;20006;-79
2024/01/25 04:29:39;;;;;;;25.40;4.28;;;;;;;8.33;97.58;101024.50;12199441;19;20031;-78
2024/01/25 04:33:41;;;;;;;27.50;3.92;;;;;;;8.28;97.89;101035.28;12178926;19;20339;-80
2024/01/25 04:37:49;;;;;;;16.23;4.10;;;;;;;8.21;97.98;101018.78;12199761;19;20017;-79
2024/01/25 04:41:51;;;;;;;20.45;3.53;;;;;;;8.11;98.99;101023.78;12201719;19;19999;-82
2024/01/25 04:45:53;;;;;;;18.00;3.35;;;;;;;7.96;99.88;101027.50;12177859;19;20007;-79
2024/01/25 04:49:54;;;;;;;14.93;3.53;;;;;;;7.73;100.00;101037.91;12199467;19;20494;-82
2024/01/25 04:53:56;;;;;;;17.05;3.45;;;;;;;7.53;100.00;101043.28;12198060;19;20595;-78
2024/01/25 04:57:58;;;;;;;18.65;3.10;;;;;;;7.30;100.00;101049.84;12176003;19;20014;-82
2024/01/25 05:02:00;;;;;;;17.95;3.47;;;;;;;7.14;100.00;101055.63;12198319;19;20485;-81
2024/01/25 05:06:02;;;;;;;18.88;3.03;;;;;;;7.01;100.00;101067.28;12175858;19;20442;-82
2024/01/25 05:10:04;;;;;;;23.43;3.47;;;;;;;6.90;100.00;101053.25;12199367;19;20774;-82
2024/01/25 05:14:07;;;;;;;15.52;2.85;;;;;;;6.79;100.00;101060.13;12200379;19;20014;-80
2024/01/25 05:18:10;;;;;;;22.73;3.58;;;;;;;6.69;100.00;101052.19;12188657;19;20015;-82
2024/01/25 05:22:12;;;;;;;10.83;2.27;;;;;;;6.65;100.00;101050.06;12203900;19;20002;-81
2024/01/25 05:26:15;;;;;;;13.43;2.97;;;;;;;6.61;100.00;101066.88;12204670;19;20667;-83
2024/01/25 05:30:17;;;;;;;;;;;;;;;6.56;100.00;101061.13;12184596;19;20028;-81
2024/01/25 05:34:19;;;;;;;23.63;2.60;;;;;;;6.57;100.00;101070.19;12198040;19;21887;-81
2024/01/25 05:38:21;;;;;;;20.03;3.50;;;;;;;6.55;100.00;101077.78;12196973;19;20277;-82
2024/01/25 05:42:23;;;;;;;9.50;2.47;;;;;;;6.53;100.00;101074.38;12178519;19;20038;-82
2024/01/25 05:46:25;;;;;;;15.98;3.42;;;;;;;6.60;100.00;101083.50;12187616;19;20009;-81
2024/01/25 05:50:27;;;;;;;18.27;3.43;;;;;;;6.67;100.00;101081.69;12193789;19;20363;-81
2024/01/25 05:54:29;;;;;;;18.20;3.63;;;;;;;6.81;100.00;101083.56;12174014;19;20043;-81
2024/01/25 05:58:31;;;;;;;22.73;4.07;;;;;;;6.97;100.00;101087.06;12196085;19;20305;-81
2024/01/25 06:02:33;;;;;;;20.03;4.27;;;;;;;7.07;100.00;101082.94;12191266;19;20466;-81
2024/01/25 06:06:35;;;;;;;14.82;3.05;;;;;;;7.10;100.00;101070.75;12181165;19;20006;-81
2024/01/25 06:10:37;;;;;;;14.63;2.60;;;;;;;7.05;100.00;101081.47;12207446;19;20010;-82
2024/01/25 06:14:39;;;;;;;14.23;3.42;;;;;;;6.92;100.00;101084.06;12207245;19;20019;-81
2024/01/25 06:18:41;;;;;;;15.02;2.40;;;;;;;6.75;100.00;101089.81;12184977;19;20017;-81
2024/01/25 06:22:43;;;;;;;8.80;3.23;;;;;;;6.59;100.00;101098.25;12206631;19;20034;-82
2024/01/25 06:26:45;;;;;;;12.40;3.20;;;;;;;6.43;100.00;101102.06;12211869;19;20007;-81
2024/01/25 06:30:47;;;;;;;28.35;4.00;;;;;;;6.31;100.00;101092.63;12181859;19;20255;-81
2024/01/25 06:34:48;;;;;;;23.38;4.60;;;;;;;6.20;100.00;101099.44;12206863;19;20002;-81
2024/01/25 06:38:51;;;;;;;;;;;;;;;6.08;100.00;101090.00;12209699;19;20074;-80
2024/01/25 06:42:53;;;;;;;14.18;3.88;;;;;;;5.99;100.00;101082.94;12193301;19;19928;-81
2024/01/25 06:46:56;;;;;;;13.77;3.23;;;;;;;5.86;100.00;101078.06;12207675;19;20014;-81
2024/01/25 06:50:58;;;;;;;16.67;3.42;;;;;;;5.80;100.00;101076.97;12207138;19;20006;-79
2024/01/25 06:54:59;;;;;;;19.53;3.57;;;;;;;5.72;100.00;101071.56;12210420;19;20007;-81
2024/01/25 06:59:02;;;;;;;21.40;3.43;;;;;;;5.68;100.00;101075.69;12247759;19;20014;-80
2024/01/25 07:03:05;;;;;;;16.83;3.07;;;;;;;5.64;100.00;101085.31;12212970;19;20307;-82
2024/01/25 07:07:09;;;;;;;13.93;2.88;;;;;;;5.56;100.00;101099.94;12230692;19;20307;-79
2024/01/25 07:11:12;;;;;;;21.27;4.60;;;;;;;5.52;100.00;101100.47;12253074;19;20006;-80
2024/01/25 07:15:14;;;;;;;23.23;4.70;;;;;;;5.50;100.00;101103.38;12214338;19;20006;-81
2024/01/25 07:19:16;;;;;;;17.53;2.97;;;;;;;5.53;100.00;101111.22;12208166;19;20006;-80
2024/01/25 07:23:18;;;;;;;17.73;2.90;;;;;;;5.48;100.00;101106.31;12214526;19;20265;-82
2024/01/25 07:27:20;;;;;;;11.15;3.10;;;;;;;5.44;100.00;101109.59;12194550;19;20743;-81
2024/01/25 07:31:23;;;;;;;17.45;3.47;;;;;;;5.41;100.00;101115.44;12208625;19;20018;-82
2024/01/25 07:35:26;;;;;;;14.07;3.20;;;;;;;5.38;100.00;101113.91;12212212;19;20078;-81
2024/01/25 07:39:27;;;;;;;15.80;3.42;;;;;;;5.37;100.00;101120.41;12191354;19;19999;-80
2024/01/25 07:43:29;;;;;;;20.85;3.60;;;;;;;5.42;100.00;101130.81;12212361;19;20031;-81
2024/01/25 07:47:31;;;;;;;21.45;4.22;;;;;;;5.44;100.00;101140.53;12210808;19;20029;-81
2024/01/25 07:51:33;;;;;;;18.63;3.57;;;;;;;5.48;100.00;101138.28;12195357;19;20002;-82
2024/01/25 07:55:35;;;;;;;15.03;2.87;;;;;;;5.52;100.00;101136.03;12211816;19;20006;-81
2024/01/25 07:59:37;;;;;;;15.83;2.87;;;;;;;5.55;100.00;101136.50;12208086;19;20031;-82
2024/01/25 08:03:39;;;;;;;19.00;3.97;;;;;;;5.63;100.00;101143.78;12186529;19;20007;-82
2024/01/25 08:07:41;;;;;;;17.53;3.97;;;;;;;5.70;100.00;101150.19;12210340;19;20103;-81
2024/01/25 08:11:43;;;;;;;12.97;3.43;;;;;;;5.79;100.00;101149.09;12212476;19;20034;-81
2024/01/25 08:15:45;;;;;;;22.33;3.90;;;;;;;5.85;100.00;101152.97;12188964;19;20010;-81
2024/01/25 08:19:47;;;;;;;13.30;2.72;;;;;;;5.95;100.00;101142.66;12207317;19;20434;-81
2024/01/25 08:23:52;;;;;;;18.05;3.45;;;;;;;6.05;100.00;101145.97;12212561;19;20015;-81
2024/01/25 08:27:54;;;;;;;19.57;4.40;;;;;;;6.16;100.00;101139.19;12185257;19;20453;-81
2024/01/25 08:31:56;;;;;;;20.73;3.22;;;;;;;6.23;100.00;101140.09;12209637;19;20018;-82
2024/01/25 08:35:58;;;;;;;20.65;3.90;;;;;;;6.31;100.00;101142.75;12208528;19;20021;-81
2024/01/25 08:40:04;;;;;;;22.17;4.25;;;;;;;6.44;100.00;101147.56;12210439;19;20010;-82
2024/01/25 08:44:06;;;;;;;17.33;3.67;;;;;;;6.57;100.00;101160.56;12210634;19;20007;-79
2024/01/25 08:48:08;;;;;;;14.98;2.38;;;;;;;6.72;100.00;101158.69;12188197;19;20374;-81
2024/01/25 08:52:10;;;;;;;15.35;3.50;;;;;;;6.84;100.00;101154.41;12209515;19;20362;-81
2024/01/25 08:56:12;;;;;;;17.05;4.78;;;;;;;6.97;100.00;101158.34;12209626;19;20053;-81
2024/01/25 09:00:15;;;;;;;16.00;4.13;;;;;;;7.12;100.00;101161.88;12188123;19;20006;-78
2024/01/25 09:04:18;;;;;;;;;;;;;;;7.22;100.00;101170.63;12209682;19;20521;-81
2024/01/25 09:08:20;;;;;;;25.67;4.78;;;;;;;7.33;100.00;101166.53;12210509;19;20569;-82
2024/01/25 09:12:22;;;;;;;24.53;3.77;;;;;;;7.43;100.00;101174.41;12187611;19;20038;-81
2024/01/25 09:16:23;;;;;;;19.88;4.10;;;;;;;7.60;100.00;101178.59;12205903;19;20024;-81
2024/01/25 09:20:25;;;;;;;27.17;4.07;;;;;;;7.80;100.00;101177.94;12203113;19;20018;-81
2024/01/25 09:24:27;;;;;;;29.37;5.00;;;;;;;7.95;100.00;101168.53;12184579;19;20010;-81
2024/01/25 09:28:29;;;;;;;17.98;4.30;;;;;;;8.26;100.00;101164.53;12204120;19;20017;-80
2024/01/25 09:32:31;;;;;;;25.10;4.47;;;;;;;8.57;100.00;101172.38;12207155;19;20011;-80
2024/01/25 09:36:33;;;;;;;15.20;3.75;;;;;;;8.85;100.00;101166.75;12181093;19;20034;-81
2024/01/25 09:40:35;;;;;;;23.00;4.70;;;;;;;9.10;100.00;101168.97;12181496;19;20067;-82
2024/01/25 09:44:38;;;;;;;19.75;4.05;;;;;;;9.25;100.00;101168.78;12204530;19;20006;-80
2024/01/25 09:48:40;;;;;;;16.03;4.50;;;;;;;9.31;100.00;101162.44;12205764;19;20028;-82
2024/01/25 09:52:47;;;;;;;18.80;4.47;;;;;;;9.41;99.18;101164.81;12183494;19;20407;-80
2024/01/25 09:56:51;;;;;;;21.42;3.75;;;;;;;9.52;99.53;101169.72;12202488;19;20054;-82
2024/01/25 10:00:53;;;;;;;19.38;3.65;;;;;;;9.76;99.00;101187.50;12199851;19;20011;-80
2024/01/25 10:04:55;;;;;;;15.73;4.45;;;;;;;10.00;95.39;101181.38;12188724;19;20026;-80
2024/01/25 10:08:58;;;;;;;22.30;4.83;;;;;;;10.12;95.00;101197.25;12202748;19;20477;-81
2024/01/25 10:13:00;;;;;;;20.85;4.00;;;;;;;10.22;93.48;101186.63;12205718;19;20013;-79
2024/01/25 10:17:02;;;;;;;24.92;4.50;;;;;;;10.41;93.92;101177.53;12179030;19;20082;-81
2024/01/25 10:21:04;;;;;;;20.35;3.83;;;;;;;10.58;92.11;101175.13;12203920;19;20025;-80
2024/01/25 10:25:12;;;;;;;30.48;4.63;;;;;;;10.77;90.44;101176.16;12206153;19;20020;-80
2024/01/25 10:29:15;;;;;;;18.30;4.28;;;;;;;10.82;90.00;101183.75;12182391;19;20010;-80
2024/01/25 10:33:17;;;;;;;16.98;3.60;;;;;;;10.84;90.06;101182.47;12205157;19;21630;-80
2024/01/25 10:37:20;;;;;;;16.08;3.38;;;;;;;10.87;87.98;101168.25;12180658;19;20377;-80
2024/01/25 10:41:23;;;;;;;19.67;5.25;;;;;;;10.88;87.37;101172.69;12202185;19;20470;-78
2024/01/25 10:45:29;;;;;;;14.70;4.22;;;;;;;10.94;86.94;101170.97;12204089;19;20014;-81
2024/01/25 10:49:32;;;;;;;21.77;4.63;;;;;;;11.04;85.98;101178.81;12183016;19;20018;-79
2024/01/25 10:53:36;;;;;;;18.52;4.65;;;;;;;11.19;86.73;101198.66;12215564;19;20049;-80
2024/01/25 10:57:42;;;;;;;22.58;4.45;;;;;;;11.17;84.69;101201.63;12218004;19;20003;-80
2024/01/25 11:01:45;;;;;;;15.57;3.58;;;;;;;11.21;84.16;101190.16;12197693;19;20006;-79
2024/01/25 11:05:48;;;;;;;24.20;5.88;;;;;;;11.17;83.60;101187.84;12264727;19;20046;-79
2024/01/25 11:09:51;;;;;;;17.73;4.15;;;;;;;11.20;84.15;101167.25;12258496;19;20259;-79
2024/01/25 11:13:55;;;;;;;25.15;4.57;;;;;;;11.45;84.37;101163.69;12217710;19;20002;-80
2024/01/25 11:17:57;;;;;;;20.80;3.70;;;;;;;11.57;83.67;101167.41;12214374;19;20006;-79
2024/01/25 11:22:03;;;;;;;28.23;4.03;;;;;;;11.78;83.42;101169.81;12209839;19;20013;-78
2024/01/25 11:26:08;;;;;;;23.67;4.63;;;;;;;11.82;81.58;101179.34;12192911;19;20058;-77
2024/01/25 11:30:11;;;;;;;16.80;3.60;;;;;;;11.83;81.38;101171.91;12207704;19;20020;-78
2024/01/25 11:34:18;;;;;;;15.27;4.10;;;;;;;11.80;78.57;101169.59;12208317;19;20126;-79
2024/01/25 11:38:20;;;;;;;18.13;3.72;;;;;;;11.89;78.87;101159.97;12186504;19;20032;-79
2024/01/25 11:42:22;;;;;;;;;;;;;;;12.08;78.34;101147.91;12213816;19;20010;-78
2024/01/25 11:46:25;;;;;;;21.52;4.20;;;;;;;12.34;75.76;101134.88;12186753;19;19915;-80
2024/01/25 11:50:29;;;;;;;14.63;3.25;;;;;;;12.28;75.05;101125.63;12207576;19;19999;-81
2024/01/25 11:54:31;;;;;;;18.20;3.83;;;;;;;12.44;74.89;101123.31;12207270;19;20037;-81
2024/01/25 11:58:34;;;;;;;16.93;3.60;;;;;;;12.63;72.84;101122.22;12185899;19;20477;-79
2024/01/25 12:02:40;;;;;;;15.18;3.20;;;;;;;12.57;71.34;101122.31;12200210;19;20006;-78
2024/01/25 12:06:43;;;;;;;19.02;3.60;;;;;;;12.54;70.49;101112.53;12210458;19;20090;-78
2024/01/25 12:10:45;;;;;;;;;;;;;;;12.54;68.03;101101.47;12186155;19;20081;-78
2024/01/25 12:14:47;;;;;;;16.17;3.75;;;;;;;12.89;68.20;101109.13;12205961;19;19911;-82
2024/01/25 12:18:49;;;;;;;22.90;4.30;;;;;;;12.80;66.46;101105.00;12199806;19;20007;-77
2024/01/25 12:22:52;;;;;;;19.47;4.07;;;;;;;12.94;66.60;101098.22;12177340;19;20019;-79
2024/01/25 12:26:55;;;;;;;13.20;3.97;;;;;;;13.31;65.72;101084.28;12211147;19;20003;-79
2024/01/25 12:30:57;;;;;;;22.60;4.53;;;;;;;13.47;64.96;101063.38;12206842;19;20022;-78
2024/01/25 12:35:00;;;;;;;28.13;4.05;;;;;;;13.55;64.06;101057.47;12187156;19;20030;-78
2024/01/25 12:39:02;;;;;;;16.08;3.40;;;;;;;13.76;63.99;101067.97;12204964;19;20346;-78
2024/01/25 12:43:04;;;;;;;23.97;4.13;;;;;;;13.90;61.86;101058.34;12209155;19;20434;-79
2024/01/25 12:47:07;;;;;;;16.00;3.73;;;;;;;13.86;60.82;101050.72;12182004;19;20035;-80
2024/01/25 12:51:10;;;;;;;16.27;3.38;;;;;;;13.95;61.56;101063.16;12203314;19;20034;-79
2024/01/25 12:55:12;;;;;;;19.48;4.15;;;;;;;13.74;60.77;101064.63;12203798;19;20027;-78
2024/01/25 12:59:14;;;;;;;;;;;;;;;14.11;60.51;101050.50;12182377;19;20006;-79
2024/01/25 13:03:17;;;;;;;22.25;4.18;;;;;;;14.40;59.71;101050.56;12216167;19;19907;-79
2024/01/25 13:07:20;;;;;;;20.70;4.03;;;;;;;14.25;59.32;101051.06;12185003;19;20014;-77
2024/01/25 13:11:22;;;;;;;18.92;4.60;;;;;;;14.04;59.33;101034.00;12204919;19;20066;-79
2024/01/25 13:15:24;;;;;;;21.17;4.63;;;;;;;13.99;58.97;101033.88;12202066;19;20010;-79
2024/01/25 13:19:26;;;;;;;15.85;3.88;;;;;;;13.91;58.51;101035.06;12184533;19;20021;-79
2024/01/25 13:23:34;;;;;;;24.08;3.97;;;;;;;13.59;58.80;101037.38;12201961;19;20017;-79
2024/01/25 13:27:37;;;;;;;19.95;3.50;;;;;;;13.36;58.70;101015.22;12206026;19;20287;-78
2024/01/25 13:31:40;;;;;;;29.85;4.75;;;;;;;13.33;59.91;101007.38;12182199;19;20015;-79
2024/01/25 13:35:42;;;;;;;;;;;;;;;13.14;59.64;100999.13;12201607;19;20010;-79
2024/01/25 13:39:44;;;;;;;15.75;4.03;;;;;;;13.07;60.70;100997.56;12201851;19;19935;-80
2024/01/25 13:43:46;;;;;;;17.63;3.70;;;;;;;13.07;61.02;101009.47;12177994;19;20398;-80
2024/01/25 13:47:48;;;;;;;23.17;3.97;;;;;;;13.07;60.98;101008.63;12204742;19;20022;-79
2024/01/25 13:51:51;;;;;;;21.73;4.07;;;;;;;13.06;61.08;100988.41;12208744;19;20356;-80
2024/01/25 13:55:52;;;;;;;24.13;4.40;;;;;;;12.97;61.66;100992.63;12177718;19;20002;-79
2024/01/25 13:59:55;;;;;;;;;;;;;;;12.83;62.02;100991.97;12201637;19;20386;-78
2024/01/25 14:03:57;;;;;;;27.23;4.00;;;;;;;12.71;62.50;100991.09;12200990;19;19929;-79
2024/01/25 14:07:59;;;;;;;20.63;4.90;;;;;;;12.60;62.93;100991.88;12179690;19;20007;-78
2024/01/25 14:12:02;;;;;;;11.93;3.10;;;;;;;12.45;63.21;100993.13;12199874;19;20022;-78
2024/01/25 14:16:04;;;;;;;15.10;4.00;;;;;;;12.38;63.85;100999.84;12200431;19;20090;-78
2024/01/25 14:20:07;;;;;;;17.80;5.57;;;;;;;12.41;64.39;100996.63;12180799;19;20051;-79
2024/01/25 14:24:15;;;;;;;22.90;4.38;;;;;;;12.41;64.55;100996.63;12202796;19;20282;-80
2024/01/25 14:28:17;;;;;;;17.65;5.05;;;;;;;12.34;64.93;100980.09;12208122;19;20044;-78
2024/01/25 14:32:21;;;;;;;19.63;3.43;;;;;;;12.28;65.23;100981.03;12268225;19;20006;-78
2024/01/25 14:36:25;;;;;;;13.10;3.33;;;;;;;12.22;65.81;100966.22;12260949;19;20051;-78
2024/01/25 14:40:27;;;;;;;17.70;4.20;;;;;;;12.18;65.84;100986.28;12224740;19;20014;-78
2024/01/25 14:44:48;;;;;;;22.85;4.75;;;;;;;12.07;66.16;100990.66;12220110;19;20014;-78
2024/01/25 14:48:57;;;;;;;13.23;4.28;;;;;;;11.93;66.78;100984.44;12224809;19;20010;-79
2024/01/25 14:52:59;;;;;;;14.48;3.63;;;;;;;11.89;67.17;100976.84;12191228;19;20010;-80
2024/01/25 14:57:03;;;;;;;20.73;4.18;;;;;;;11.79;67.29;100983.72;12210857;19;20007;-80
2024/01/25 15:01:05;;;;;;;20.43;4.03;;;;;;;11.69;67.88;100988.94;12213204;19;20446;-79
2024/01/25 15:05:08;;;;;;;13.00;3.75;;;;;;;11.71;68.08;100978.47;12185766;19;20254;-78
2024/01/25 15:09:12;;;;;;;16.80;3.75;;;;;;;11.69;68.39;100968.75;12207900;19;20078;-78
2024/01/25 15:13:21;;;;;;;11.23;3.22;;;;;;;11.59;68.77;100953.56;12189367;19;20022;-78
2024/01/25 15:17:24;;;;;;;15.10;4.13;;;;;;;11.47;69.45;100946.25;12204124;19;20517;-79
2024/01/25 15:21:26;;;;;;;18.60;4.57;;;;;;;11.40;69.97;100949.94;12207457;19;20007;-79
2024/01/25 15:25:28;;;;;;;;;;;;;;;11.32;70.53;100952.97;12182836;19;20352;-78
2024/01/25 15:29:31;;;;;;;14.63;3.42;;;;;;;11.26;71.48;100942.84;12208355;19;19914;-79
2024/01/25 15:33:33;;;;;;;21.92;4.20;;;;;;;11.13;72.04;100943.00;12206965;19;21563;-79
2024/01/25 15:37:37;;;;;;;19.13;3.93;;;;;;;11.08;72.64;100935.38;12180125;19;20028;-79
2024/01/25 15:41:39;;;;;;;19.67;3.80;;;;;;;11.01;73.10;100928.25;12207705;19;20014;-78
2024/01/25 15:45:42;;;;;;;25.05;3.95;;;;;;;10.93;73.37;100924.69;12208704;19;20014;-80
2024/01/25 15:49:44;;;;;;;17.55;3.60;;;;;;;10.83;74.01;100918.00;12183232;19;20070;-81
2024/01/25 15:53:48;;;;;;;14.90;3.90;;;;;;;10.74;74.69;100925.72;12213475;19;20039;-81
2024/01/25 15:57:49;;;;;;;16.05;4.18;;;;;;;10.60;75.80;100916.69;12202947;19;20022;-79
2024/01/25 16:01:52;;;;;;;14.52;3.92;;;;;;;10.45;76.60;100922.50;12184139;19;20437;-79
2024/01/25 16:05:54;;;;;;;27.90;3.92;;;;;;;10.30;77.70;100915.63;12202549;19;20006;-79
2024/01/25 16:09:56;;;;;;;11.32;3.70;;;;;;;10.18;78.42;100907.19;12204475;19;20010;-79
2024/01/25 16:13:58;;;;;;;22.70;4.30;;;;;;;10.06;79.09;100918.03;12181672;19;20033;-79
2024/01/25 16:17:59;;;;;;;16.40;3.28;;;;;;;9.95;79.66;100916.81;12202824;19;20007;-78
2024/01/25 16:22:01;;;;;;;23.17;4.43;;;;;;;9.86;80.44;100931.88;12206097;19;20034;-78
2024/01/25 16:26:04;;;;;;;22.87;4.60;;;;;;;9.88;80.92;100932.53;12183456;19;20949;-79
2024/01/25 16:30:06;;;;;;;19.02;4.05;;;;;;;9.87;81.71;100916.22;12209124;19;20235;-79
2024/01/25 16:34:08;;;;;;;24.17;4.70;;;;;;;9.79;82.37;100929.16;12206525;19;20689;-79
2024/01/25 16:38:10;;;;;;;14.43;4.03;;;;;;;9.72;83.17;100928.31;12187438;19;20031;-79
2024/01/25 16:42:12;;;;;;;17.50;3.80;;;;;;;9.72;83.71;100928.31;12224126;19;20531;-79
2024/01/25 16:46:13;;;;;;;14.52;3.63;;;;;;;9.74;84.88;100915.19;12228479;19;20032;-80
2024/01/25 16:50:15;;;;;;;11.40;3.83;;;;;;;9.81;84.73;100905.03;12211242;19;20011;-79
2024/01/25 16:54:17;;;;;;;12.00;3.10;;;;;;;9.85;84.62;100899.09;12236067;19;20011;-79
2024/01/25 16:58:20;;;;;;;21.50;3.65;;;;;;;9.90;84.58;100897.34;12238903;19;20119;-78
2024/01/25 17:02:22;;;;;;;15.90;3.67;;;;;;;9.96;84.84;100890.94;12194043;19;20006;-79
2024/01/25 17:06:24;;;;;;;18.00;3.63;;;;;;;10.00;84.80;100892.22;12197067;19;20017;-79
2024/01/25 17:10:26;;;;;;;14.68;3.13;;;;;;;10.07;84.83;100905.94;12196010;19;20018;-79
2024/01/25 17:14:28;;;;;;;15.97;4.17;;;;;;;10.10;84.94;100901.91;12177923;19;20006;-79
2024/01/25 17:18:30;;;;;;;13.57;3.47;;;;;;;10.12;85.40;100900.63;12198574;19;20263;-79
2024/01/25 17:22:32;;;;;;;20.17;4.10;;;;;;;10.18;85.24;100893.41;12174135;19;20026;-79
2024/01/25 17:26:34;;;;;;;19.73;4.80;;;;;;;10.19;85.39;100892.31;12191683;19;20006;-80
2024/01/25 17:30:35;;;;;;;17.55;3.33;;;;;;;10.18;85.50;100898.91;12200174;19;20017;-78
2024/01/25 17:34:37;;;;;;;23.45;4.35;;;;;;;10.17;85.93;100894.44;12175455;19;20029;-78
2024/01/25 17:38:42;;;;;;;14.73;3.80;;;;;;;10.17;86.42;100891.69;12192384;19;20082;-78
2024/01/25 17:42:45;;;;;;;12.52;3.75;;;;;;;10.20;86.30;100889.38;12197768;19;20033;-79
2024/01/25 17:46:48;;;;;;;22.90;4.80;;;;;;;10.18;86.75;100890.66;12174135;19;20456;-78
2024/01/25 17:50:50;;;;;;;14.90;5.43;;;;;;;10.20;87.22;100894.00;12196075;19;20006;-78
2024/01/25 17:54:51;;;;;;;18.42;4.60;;;;;;;10.23;87.08;100883.41;12194769;19;20537;-78
2024/01/25 17:58:55;;;;;;;20.23;4.30;;;;;;;10.22;87.37;100878.94;12170794;19;20517;-80
2024/01/25 18:02:57;;;;;;;19.52;4.78;;;;;;;10.19;88.75;100878.56;12207718;19;20007;-80
2024/01/25 18:06:59;;;;;;;18.13;5.40;;;;;;;10.17;90.29;100883.44;12213008;19;20003;-80
2024/01/25 18:11:00;;;;;;;20.30;4.68;;;;;;;10.08;93.28;100874.59;12188133;19;20046;-80
2024/01/25 18:15:03;;;;;;;19.00;5.57;;;;;;;10.00;94.58;100866.59;12211463;19;20405;-78
2024/01/25 18:19:04;;;;;;;23.98;5.18;;;;;;;9.92;97.16;100867.69;12208430;19;20034;-81
2024/01/25 18:23:06;;;;;;;26.30;4.93;;;;;;;9.89;98.92;100872.78;12189693;19;20473;-80
2024/01/25 18:27:08;;;;;;;21.65;5.07;;;;;;;9.90;99.43;100880.81;12209920;19;20122;-81
2024/01/25 18:31:10;;;;;;;25.02;5.05;;;;;;;9.91;100.00;100870.69;12212654;19;20470;-81